createdAt,value
2022-10-24T00:01:25.135Z,11.82
2022-10-24T00:03:52.418Z,11.79
2022-10-24T00:06:20.474Z,11.79
2022-10-24T00:08:47.906Z,11.83
2022-10-24T00:11:26.967Z,11.81
2022-10-24T00:13:56.676Z,11.79
2022-10-24T00:16:24.346Z,11.75
2022-10-24T00:18:51.732Z,11.70
2022-10-24T00:21:19.146Z,11.66
2022-10-24T00:23:46.463Z,11.64
2022-10-24T00:26:14.554Z,11.64
2022-10-24T00:28:41.876Z,11.64
2022-10-24T00:31:14.827Z,11.64
2022-10-24T00:33:43.350Z,11.63
2022-10-24T00:36:15.979Z,11.63
2022-10-24T00:38:43.900Z,11.59
2022-10-24T00:41:21.682Z,11.58
2022-10-24T00:43:49.156Z,11.60
2022-10-24T00:46:18.134Z,11.54
2022-10-24T00:48:54.730Z,11.54
2022-10-24T00:51:27.270Z,11.54
2022-10-24T00:54:00.158Z,11.54
2022-10-24T00:56:32.270Z,11.55
2022-10-24T00:59:02.961Z,11.52
2022-10-24T01:01:30.276Z,11.52
2022-10-24T01:03:57.543Z,11.52
2022-10-24T01:06:44.314Z,11.48
2022-10-24T01:09:24.396Z,11.48
2022-10-24T01:12:15.914Z,11.46
2022-10-24T01:15:04.872Z,11.46
2022-10-24T01:17:50.757Z,11.46
2022-10-24T01:20:34.612Z,11.44
2022-10-24T01:23:27.465Z,11.49
2022-10-24T01:26:13.388Z,11.47
2022-10-24T01:28:57.581Z,11.51
2022-10-24T01:31:35.614Z,11.47
2022-10-24T01:34:11.150Z,11.45
2022-10-24T01:37:04.206Z,11.41
2022-10-24T01:39:36.824Z,11.42
2022-10-24T01:42:06.396Z,11.41
2022-10-24T01:44:44.328Z,11.47
2022-10-24T01:47:19.518Z,11.54
2022-10-24T01:49:53.589Z,11.65
2022-10-24T01:52:23.727Z,11.69
2022-10-24T01:54:52.111Z,11.67
2022-10-24T01:57:19.446Z,11.75
2022-10-24T01:59:48.892Z,11.84
2022-10-24T02:02:27.394Z,11.78
2022-10-24T02:04:59.937Z,11.74
2022-10-24T02:07:30.869Z,11.67
2022-10-24T02:10:03.212Z,11.63
2022-10-24T02:12:31.577Z,11.60
2022-10-24T02:15:05.161Z,11.58
2022-10-24T02:17:32.635Z,11.53
2022-10-24T02:20:00.808Z,11.54
2022-10-24T02:22:41.980Z,11.54
2022-10-24T02:25:39.889Z,11.53
2022-10-24T02:28:15.717Z,11.53
2022-10-24T02:30:54.168Z,11.56
2022-10-24T02:33:22.287Z,11.66
2022-10-24T02:35:50.632Z,11.86
2022-10-24T02:38:28.637Z,11.87
2022-10-24T02:40:58.224Z,11.89
2022-10-24T02:43:27.890Z,11.86
2022-10-24T02:45:58.399Z,11.90
2022-10-24T02:48:32.736Z,11.93
2022-10-24T02:51:01.065Z,11.94
2022-10-24T02:53:30.154Z,12.00
2022-10-24T02:55:57.548Z,12.07
2022-10-24T02:58:24.891Z,12.23
2022-10-24T03:00:55.496Z,12.37
2022-10-24T03:03:23.084Z,12.46
2022-10-24T03:05:50.375Z,12.46
2022-10-24T03:08:17.723Z,12.39
2022-10-24T03:10:44.975Z,12.33
2022-10-24T03:13:12.675Z,12.34
2022-10-24T03:15:40.032Z,12.25
2022-10-24T03:18:07.345Z,12.27
2022-10-24T03:20:34.668Z,12.28
2022-10-24T03:23:01.986Z,12.28
2022-10-24T03:25:29.279Z,12.29
2022-10-24T03:27:56.539Z,12.26
2022-10-24T03:30:24.307Z,12.22
2022-10-24T03:32:51.526Z,12.17
2022-10-24T03:35:19.017Z,12.15
2022-10-24T03:37:46.258Z,12.12
2022-10-24T03:40:27.898Z,12.11
2022-10-24T03:42:55.266Z,12.13
2022-10-24T03:45:22.560Z,12.12
2022-10-24T03:47:49.824Z,12.29
2022-10-24T03:50:17.164Z,12.44
2022-10-24T03:52:44.537Z,12.56
2022-10-24T03:55:12.633Z,12.62
2022-10-24T03:57:39.966Z,12.65
2022-10-24T04:00:07.936Z,12.70
2022-10-24T04:02:37.004Z,12.71
2022-10-24T04:05:06.986Z,12.65
2022-10-24T04:07:34.287Z,12.56
2022-10-24T04:10:01.509Z,12.43
2022-10-24T04:12:28.902Z,12.33
2022-10-24T04:14:57.840Z,12.17
2022-10-24T04:17:27.034Z,12.09
2022-10-24T04:19:54.201Z,12.05
2022-10-24T04:22:21.700Z,12.04
2022-10-24T04:24:49.066Z,11.99
2022-10-24T04:27:16.490Z,12.04
2022-10-24T04:29:43.822Z,12.15
2022-10-24T04:32:11.079Z,12.26
2022-10-24T04:34:38.326Z,12.30
2022-10-24T04:37:05.871Z,12.33
2022-10-24T04:39:33.352Z,12.45
2022-10-24T04:42:00.604Z,12.61
2022-10-24T04:44:27.993Z,12.79
2022-10-24T04:46:55.199Z,12.79
2022-10-24T04:49:22.505Z,12.83
2022-10-24T04:51:49.713Z,12.91
2022-10-24T04:54:17.149Z,12.96
2022-10-24T04:56:44.399Z,13.07
2022-10-24T04:59:11.615Z,13.23
2022-10-24T05:01:38.950Z,13.37
2022-10-24T05:04:06.289Z,13.46
2022-10-24T05:06:33.536Z,13.45
2022-10-24T05:09:00.844Z,13.38
2022-10-24T05:11:28.040Z,13.43
2022-10-24T05:13:55.486Z,13.45
2022-10-24T05:16:22.844Z,13.56
2022-10-24T05:18:50.349Z,13.41
2022-10-24T05:21:17.576Z,13.41
2022-10-24T05:23:44.757Z,13.41
2022-10-24T05:26:11.980Z,13.41
2022-10-24T05:28:39.208Z,13.54
2022-10-24T05:31:06.527Z,13.49
2022-10-24T05:33:33.818Z,13.49
2022-10-24T05:36:01.072Z,13.49
2022-10-24T05:38:28.299Z,13.37
2022-10-24T05:40:55.540Z,13.33
2022-10-24T05:43:22.768Z,13.38
2022-10-24T05:48:18.288Z,13.66
2022-10-24T05:50:45.604Z,13.67
2022-10-24T05:53:13.126Z,13.70
2022-10-24T05:55:40.511Z,13.72
2022-10-24T05:58:07.860Z,13.87
2022-10-24T06:00:35.133Z,13.95
2022-10-24T06:03:02.364Z,14.04
2022-10-24T06:05:29.885Z,13.94
2022-10-24T06:07:59.546Z,13.96
2022-10-24T06:10:26.751Z,13.95
2022-10-24T06:12:54.042Z,13.90
2022-10-24T06:15:21.422Z,13.90
2022-10-24T06:17:48.869Z,13.99
2022-10-24T06:20:16.185Z,14.13
2022-10-24T06:25:55.529Z,14.11
2022-10-24T06:28:22.991Z,14.06
2022-10-24T06:30:56.496Z,13.96
2022-10-24T06:33:23.956Z,13.99
2022-10-24T06:35:51.336Z,13.98
2022-10-24T06:38:18.638Z,14.00
2022-10-24T06:40:45.958Z,13.93
2022-10-24T06:43:13.384Z,13.79
2022-10-24T06:45:40.917Z,13.73
2022-10-24T06:48:08.316Z,13.73
2022-10-24T06:50:36.865Z,13.71
2022-10-24T06:53:04.228Z,13.77
2022-10-24T06:55:31.443Z,13.68
2022-10-24T06:57:58.753Z,13.56
2022-10-24T07:02:59.434Z,13.36
2022-10-24T07:05:26.908Z,13.27
2022-10-24T07:07:54.500Z,13.18
2022-10-24T07:10:21.875Z,13.16
2022-10-24T07:12:49.082Z,13.17
2022-10-24T07:15:26.239Z,13.23
2022-10-24T07:17:54.361Z,13.26
2022-10-24T07:20:21.734Z,13.27
2022-10-24T07:22:49.434Z,13.44
2022-10-24T07:25:18.625Z,13.50
2022-10-24T07:27:46.006Z,13.55
2022-10-24T07:30:18.626Z,13.48
2022-10-24T07:32:46.858Z,13.50
2022-10-24T07:35:14.611Z,13.52
2022-10-24T07:37:42.266Z,13.56
2022-10-24T07:40:10.261Z,13.54
2022-10-24T07:42:44.230Z,13.59
2022-10-24T07:45:12.302Z,13.62
2022-10-24T07:47:39.656Z,13.68
2022-10-24T07:50:07.711Z,13.85
2022-10-24T07:52:39.026Z,13.95
2022-10-24T07:55:06.648Z,14.09
2022-10-24T07:57:36.963Z,14.41
2022-10-24T08:00:05.542Z,14.90
2022-10-24T08:02:39.958Z,15.07
2022-10-24T08:05:07.983Z,14.98
2022-10-24T08:07:36.136Z,14.74
2022-10-24T08:10:05.611Z,14.57
2022-10-24T08:12:36.516Z,14.47
2022-10-24T08:15:05.121Z,14.37
2022-10-24T08:17:33.563Z,14.36
2022-10-24T08:20:01.312Z,14.33
2022-10-24T08:22:28.667Z,14.33
2022-10-24T08:24:56.018Z,14.31
2022-10-24T08:27:23.412Z,14.34
2022-10-24T08:29:50.865Z,14.34
2022-10-24T08:32:18.280Z,14.38
2022-10-24T08:34:45.551Z,14.49
2022-10-24T08:37:12.759Z,14.56
2022-10-24T08:39:40.150Z,14.66
2022-10-24T08:42:13.181Z,14.65
2022-10-24T08:44:43.331Z,14.68
2022-10-24T08:47:13.590Z,14.65
2022-10-24T08:49:45.241Z,14.63
2022-10-24T08:52:30.327Z,14.63
2022-10-24T08:55:20.279Z,14.71
2022-10-24T08:57:58.071Z,14.77
2022-10-24T09:00:31.821Z,14.75
2022-10-24T09:03:10.802Z,14.79
2022-10-24T09:05:45.747Z,14.81
2022-10-24T09:08:43.631Z,14.92
2022-10-24T09:11:20.973Z,15.00
2022-10-24T09:13:48.646Z,15.10
2022-10-24T09:16:22.100Z,15.14
2022-10-24T09:18:53.033Z,15.04
2022-10-24T09:21:21.651Z,15.03
2022-10-24T09:23:50.648Z,15.05
2022-10-24T09:26:27.578Z,15.04
2022-10-24T09:28:57.032Z,15.04
2022-10-24T09:31:27.121Z,15.03
2022-10-24T09:33:56.567Z,15.08
2022-10-24T09:36:25.113Z,15.26
2022-10-24T09:38:52.547Z,15.45
2022-10-24T09:41:19.805Z,15.55
2022-10-24T09:43:53.363Z,15.64
2022-10-24T09:46:24.060Z,15.74
2022-10-24T09:48:56.879Z,15.82
2022-10-24T09:51:45.893Z,15.91
2022-10-24T09:54:19.221Z,16.04
2022-10-24T09:56:56.729Z,16.22
2022-10-24T09:59:35.132Z,16.23
2022-10-24T10:02:29.494Z,16.33
2022-10-24T10:05:18.332Z,16.43
2022-10-24T10:07:48.717Z,16.39
2022-10-24T10:10:18.920Z,16.37
2022-10-24T10:12:55.938Z,16.28
2022-10-24T10:15:36.823Z,16.25
2022-10-24T10:18:22.208Z,16.26
2022-10-24T10:21:10.557Z,16.23
2022-10-24T10:23:42.525Z,16.21
2022-10-24T10:26:15.008Z,16.22
2022-10-24T10:28:54.821Z,16.20
2022-10-24T10:31:34.564Z,16.18
2022-10-24T10:34:21.591Z,16.29
2022-10-24T10:37:25.212Z,16.29
2022-10-24T10:40:25.974Z,16.33
2022-10-24T10:43:10.632Z,16.23
2022-10-24T10:45:48.257Z,16.32
2022-10-24T10:48:29.995Z,16.28
2022-10-24T10:51:16.043Z,16.32
2022-10-24T10:53:48.057Z,16.58
2022-10-24T10:57:00.626Z,16.77
2022-10-24T10:59:36.726Z,16.72
2022-10-24T11:02:33.297Z,16.98
2022-10-24T11:05:23.773Z,16.99
2022-10-24T11:08:15.990Z,17.02
2022-10-24T11:11:02.719Z,16.92
2022-10-24T11:13:37.675Z,16.89
2022-10-24T11:16:12.613Z,16.91
2022-10-24T11:18:46.578Z,16.91
2022-10-24T11:21:17.863Z,17.02
2022-10-24T11:24:14.085Z,17.07
2022-10-24T11:27:03.235Z,17.03
2022-10-24T11:29:55.361Z,17.07
2022-10-24T11:32:29.945Z,17.13
2022-10-24T11:35:15.556Z,17.14
2022-10-24T11:37:46.600Z,17.29
2022-10-24T11:40:19.565Z,17.26
2022-10-24T11:42:55.743Z,17.10
2022-10-24T11:45:33.387Z,16.98
2022-10-24T11:48:21.189Z,16.95
2022-10-24T11:51:08.507Z,16.95
2022-10-24T11:53:35.646Z,16.91
2022-10-24T11:56:34.848Z,17.04
2022-10-24T11:59:05.438Z,16.89
2022-10-24T12:01:55.978Z,16.75
2022-10-24T12:04:38.263Z,16.69
2022-10-24T12:07:20.682Z,16.74
2022-10-24T12:09:57.063Z,16.62
2022-10-24T12:12:31.465Z,16.55
2022-10-24T12:15:07.881Z,16.47
2022-10-24T12:17:39.550Z,16.51
2022-10-24T12:20:14.966Z,16.57
2022-10-24T12:22:44.629Z,16.60
2022-10-24T12:25:45.638Z,16.54
2022-10-24T12:28:22.455Z,16.58
2022-10-24T12:31:16.085Z,16.72
2022-10-24T12:33:44.935Z,16.67
2022-10-24T12:36:13.006Z,16.67
2022-10-24T12:38:40.215Z,16.66
2022-10-24T12:41:32.950Z,16.87
2022-10-24T12:44:34.325Z,16.96
2022-10-24T12:47:26.329Z,16.97
2022-10-24T12:49:54.025Z,17.02
2022-10-24T12:52:33.920Z,17.00
2022-10-24T12:55:02.740Z,17.11
2022-10-24T12:57:41.304Z,17.13
2022-10-24T13:00:31.597Z,17.30
2022-10-24T13:03:22.938Z,17.25
2022-10-24T13:06:14.494Z,17.20
2022-10-24T13:09:13.483Z,17.36
2022-10-24T13:11:54.917Z,17.18
2022-10-24T13:14:36.477Z,17.08
2022-10-24T13:17:40.943Z,17.00
2022-10-24T13:20:24.943Z,16.95
2022-10-24T13:23:02.242Z,16.90
2022-10-24T13:25:38.390Z,16.96
2022-10-24T13:28:22.245Z,17.15
2022-10-24T13:31:10.686Z,17.13
2022-10-24T13:33:43.574Z,17.27
2022-10-24T13:36:16.269Z,17.09
2022-10-24T13:38:54.922Z,17.25
2022-10-24T13:41:38.867Z,17.01
2022-10-24T13:44:22.041Z,16.99
2022-10-24T13:47:20.492Z,17.25
2022-10-24T13:50:28.309Z,17.26
2022-10-24T13:52:59.903Z,17.26
2022-10-24T13:55:30.873Z,17.22
2022-10-24T13:58:11.126Z,17.28
2022-10-24T14:00:42.880Z,17.25
2022-10-24T14:03:23.619Z,17.25
2022-10-24T14:05:58.620Z,17.23
2022-10-24T14:08:30.599Z,17.16
2022-10-24T14:11:02.047Z,17.13
2022-10-24T14:13:32.173Z,17.19
2022-10-24T14:16:06.232Z,17.16
2022-10-24T14:18:34.163Z,17.18
2022-10-24T14:21:02.598Z,17.08
2022-10-24T14:23:40.454Z,16.97
2022-10-24T14:26:21.612Z,16.88
2022-10-24T14:28:59.659Z,16.91
2022-10-24T14:31:34.947Z,16.80
2022-10-24T14:34:06.165Z,16.78
2022-10-24T14:36:37.818Z,16.72
2022-10-24T14:39:05.665Z,16.86
2022-10-24T14:41:39.790Z,16.89
2022-10-24T14:44:08.079Z,16.79
2022-10-24T14:46:36.596Z,16.67
2022-10-24T14:49:23.139Z,16.61
2022-10-24T14:54:32.368Z,16.73
2022-10-24T14:57:02.167Z,16.62
2022-10-24T14:59:35.318Z,16.57
2022-10-24T15:02:04.267Z,16.66
2022-10-24T15:04:39.180Z,16.56
2022-10-24T15:07:22.512Z,16.63
2022-10-24T15:09:53.038Z,16.64
2022-10-24T15:12:32.008Z,16.64
2022-10-24T15:15:33.922Z,16.58
2022-10-24T15:18:17.397Z,16.42
2022-10-24T15:20:47.928Z,16.51
2022-10-24T15:23:26.475Z,16.53
2022-10-24T15:26:09.341Z,16.51
2022-10-24T15:29:05.656Z,16.41
2022-10-24T15:31:37.678Z,16.38
2022-10-24T15:34:07.702Z,16.36
2022-10-24T15:36:39.419Z,16.28
2022-10-24T15:39:10.670Z,16.25
2022-10-24T15:41:39.450Z,16.22
2022-10-24T15:44:21.676Z,16.11
2022-10-24T15:46:51.375Z,16.03
2022-10-24T15:49:19.162Z,15.94
2022-10-24T15:51:49.909Z,15.92
2022-10-24T15:54:20.717Z,15.84
2022-10-24T15:56:48.542Z,15.90
2022-10-24T15:59:15.704Z,15.86
2022-10-24T16:01:48.796Z,15.92
2022-10-24T16:04:16.917Z,15.74
2022-10-24T16:06:44.880Z,15.68
2022-10-24T16:09:26.585Z,15.67
2022-10-24T16:11:54.863Z,15.56
2022-10-24T16:14:23.241Z,15.52
2022-10-24T16:16:50.381Z,15.56
2022-10-24T16:19:17.798Z,15.56
2022-10-24T16:21:44.976Z,15.50
2022-10-24T16:24:12.863Z,15.54
2022-10-24T16:26:40.486Z,15.58
2022-10-24T16:29:07.737Z,15.64
2022-10-24T16:31:35.137Z,15.46
2022-10-24T16:34:02.739Z,15.61
2022-10-24T16:36:30.191Z,15.51
2022-10-24T16:38:57.749Z,15.35
2022-10-24T16:41:26.648Z,15.24
2022-10-24T16:43:56.253Z,15.24
2022-10-24T16:46:25.505Z,15.23
2022-10-24T16:48:53.486Z,15.19
2022-10-24T16:51:22.305Z,15.16
2022-10-24T16:53:49.566Z,15.08
2022-10-24T16:56:17.201Z,14.88
2022-10-24T16:58:44.710Z,14.94
2022-10-24T17:01:15.693Z,14.98
2022-10-24T17:03:45.144Z,15.02
2022-10-24T17:06:12.418Z,15.05
2022-10-24T17:08:39.901Z,15.06
2022-10-24T17:11:32.095Z,14.84
2022-10-24T17:13:58.897Z,14.77
2022-10-24T17:16:26.507Z,14.89
2022-10-24T17:19:16.713Z,14.89
2022-10-24T17:21:50.244Z,14.79
2022-10-24T17:24:24.622Z,14.77
2022-10-24T17:26:53.076Z,14.73
2022-10-24T17:29:29.505Z,14.78
2022-10-24T17:31:57.631Z,14.80
2022-10-24T17:34:25.815Z,14.84
2022-10-24T17:37:20.339Z,14.64
2022-10-24T17:39:49.960Z,14.81
2022-10-24T17:42:19.622Z,14.75
2022-10-24T17:44:48.135Z,14.69
2022-10-24T17:47:16.305Z,14.75
2022-10-24T17:49:48.073Z,14.86
2022-10-24T17:52:23.106Z,14.82
2022-10-24T17:54:52.143Z,14.72
2022-10-24T17:57:19.471Z,14.72
2022-10-24T17:59:47.638Z,14.73
2022-10-24T18:02:16.620Z,14.69
2022-10-24T18:04:45.327Z,14.62
2022-10-24T18:07:13.028Z,14.54
2022-10-24T18:09:41.085Z,14.46
2022-10-24T18:12:09.994Z,14.42
2022-10-24T18:14:37.795Z,14.25
2022-10-24T18:17:05.478Z,14.13
2022-10-24T18:19:32.985Z,13.97
2022-10-24T18:22:00.579Z,13.97
2022-10-24T18:24:27.735Z,14.10
2022-10-24T18:26:54.946Z,13.98
2022-10-24T18:29:22.294Z,13.89
2022-10-24T18:31:49.581Z,13.88
2022-10-24T18:34:17.057Z,13.82
2022-10-24T18:36:44.299Z,13.65
2022-10-24T18:39:12.487Z,13.61
2022-10-24T18:41:56.424Z,13.73
2022-10-24T18:44:29.571Z,13.89
2022-10-24T18:47:01.695Z,14.10
2022-10-24T18:49:30.420Z,14.16
2022-10-24T18:52:15.309Z,14.20
2022-10-24T18:54:55.140Z,14.11
2022-10-24T18:57:28.196Z,14.13
2022-10-24T18:59:58.444Z,14.14
2022-10-24T19:02:37.427Z,14.19
2022-10-24T19:05:34.037Z,14.07
2022-10-24T19:08:02.035Z,14.06
2022-10-24T19:10:38.628Z,13.96
2022-10-24T19:13:13.034Z,13.88
2022-10-24T19:15:45.198Z,13.80
2022-10-24T19:18:18.017Z,13.71
2022-10-24T19:20:45.855Z,13.64
2022-10-24T19:23:14.466Z,13.83
2022-10-24T19:25:41.748Z,13.96
2022-10-24T19:28:11.826Z,13.82
2022-10-24T19:30:42.847Z,14.00
2022-10-24T19:33:12.133Z,13.91
2022-10-24T19:35:50.136Z,13.90
2022-10-24T19:38:19.600Z,13.73
2022-10-24T19:40:52.993Z,13.53
2022-10-24T19:43:24.641Z,13.58
2022-10-24T19:46:14.761Z,13.63
2022-10-24T19:48:42.701Z,13.56
2022-10-24T19:51:12.109Z,13.41
2022-10-24T19:53:41.383Z,13.53
2022-10-24T19:56:14.521Z,13.52
2022-10-24T19:58:42.778Z,13.61
2022-10-24T20:01:12.965Z,13.82
2022-10-24T20:03:42.592Z,13.85
2022-10-24T20:06:11.421Z,13.85
2022-10-24T20:08:39.546Z,13.82
2022-10-24T20:11:08.573Z,13.76
2022-10-24T20:13:36.437Z,13.86
2022-10-24T20:16:07.281Z,13.99
2022-10-24T20:18:36.051Z,14.00
2022-10-24T20:21:05.983Z,14.00
2022-10-24T20:23:34.370Z,14.07
2022-10-24T20:26:14.107Z,14.10
2022-10-24T20:28:44.234Z,14.06
2022-10-24T20:31:22.775Z,14.17
2022-10-24T20:33:50.478Z,14.18
2022-10-24T20:36:18.827Z,14.17
2022-10-24T20:38:46.258Z,14.17
2022-10-24T20:41:13.447Z,14.16
2022-10-24T20:43:40.772Z,14.13
2022-10-24T20:46:08.056Z,14.22
2022-10-24T20:48:36.030Z,14.15
2022-10-24T20:51:12.014Z,14.14
2022-10-24T20:53:39.842Z,14.22
2022-10-24T20:56:08.010Z,14.23
2022-10-24T20:58:40.723Z,14.14
2022-10-24T21:01:12.145Z,14.05
2022-10-24T21:03:39.884Z,14.23
2022-10-24T21:06:19.159Z,14.19
2022-10-24T21:08:48.688Z,14.29
2022-10-24T21:11:17.857Z,14.29
2022-10-24T21:13:45.721Z,14.32
2022-10-24T21:16:12.988Z,14.24
2022-10-24T21:18:40.372Z,14.27
2022-10-24T21:21:13.672Z,14.23
2022-10-24T21:23:41.378Z,14.19
2022-10-24T21:26:11.659Z,14.22
2022-10-24T21:28:39.215Z,14.29
2022-10-24T21:31:12.403Z,14.19
2022-10-24T21:33:41.642Z,14.23
2022-10-24T21:36:12.590Z,13.97
2022-10-24T21:38:40.613Z,13.92
2022-10-24T21:41:09.925Z,13.98
2022-10-24T21:43:41.625Z,14.06
2022-10-24T21:46:18.659Z,13.87
2022-10-24T21:48:46.540Z,13.86
2022-10-24T21:51:15.534Z,13.83
2022-10-24T21:53:50.800Z,13.82
2022-10-24T21:56:20.418Z,13.93
2022-10-24T21:58:49.611Z,13.84
2022-10-24T22:01:19.791Z,13.68
2022-10-24T22:03:47.233Z,13.58
2022-10-24T22:06:16.495Z,13.46
2022-10-24T22:08:44.676Z,13.56
2022-10-24T22:11:14.420Z,13.48
2022-10-24T22:13:42.998Z,13.34
2022-10-24T22:16:12.601Z,13.48
2022-10-24T22:18:40.066Z,13.31
2022-10-24T22:21:09.915Z,13.36
2022-10-24T22:23:37.581Z,13.30
2022-10-24T22:26:05.294Z,13.23
2022-10-24T22:28:32.654Z,13.21
2022-10-24T22:31:00.084Z,13.13
2022-10-24T22:33:35.810Z,13.01
2022-10-24T22:36:23.238Z,12.92
2022-10-24T22:38:54.638Z,12.95
2022-10-24T22:41:22.910Z,13.06
2022-10-24T22:43:50.690Z,13.19
2022-10-24T22:46:55.073Z,13.32
2022-10-24T22:49:36.242Z,13.37
2022-10-24T22:52:03.909Z,13.37
2022-10-24T22:54:35.153Z,13.37
2022-10-24T22:57:04.150Z,13.53
2022-10-24T22:59:32.473Z,13.55
2022-10-24T23:02:29.541Z,13.52
2022-10-24T23:05:00.923Z,13.74
2022-10-24T23:07:49.980Z,13.74
2022-10-24T23:10:21.139Z,13.80
2022-10-24T23:12:49.460Z,13.70
2022-10-24T23:15:19.045Z,13.64
2022-10-24T23:17:47.777Z,13.43
2022-10-24T23:20:26.239Z,13.44
2022-10-24T23:23:09.021Z,13.32
2022-10-24T23:25:50.083Z,13.21
2022-10-24T23:29:12.612Z,13.21
2022-10-24T23:31:40.278Z,13.31
2022-10-24T23:34:09.849Z,13.37
2022-10-24T23:36:43.136Z,13.30
2022-10-24T23:39:14.138Z,13.30
2022-10-24T23:41:42.252Z,13.29
2022-10-24T23:44:12.612Z,13.27
2022-10-24T23:46:52.088Z,13.22
2022-10-24T23:49:39.868Z,13.10
2022-10-24T23:52:26.366Z,12.98
2022-10-24T23:54:53.931Z,12.96
2022-10-24T23:57:21.365Z,13.08
2022-10-24T23:59:48.597Z,13.21
